createdAt,value
2023-11-21T00:00:18.307Z,10.97
2023-11-21T00:02:48.824Z,19.67
2023-11-21T00:05:17.186Z,12.27
2023-11-21T00:07:44.890Z,11.77
2023-11-21T00:10:12.947Z,15.80
2023-11-21T00:12:42.939Z,11.37
2023-11-21T00:15:12.023Z,10.97
2023-11-21T00:17:40.557Z,12.13
2023-11-21T00:20:08.483Z,11.50
2023-11-21T00:22:36.575Z,11.27
2023-11-21T00:25:05.179Z,11.80
2023-11-21T00:27:32.413Z,12.87
2023-11-21T00:29:59.571Z,11.40
2023-11-21T00:32:26.793Z,12.60
2023-11-21T00:34:55.731Z,13.10
2023-11-21T00:37:22.984Z,13.93
2023-11-21T00:39:50.182Z,12.47
2023-11-21T00:42:17.370Z,10.77
2023-11-21T00:44:44.513Z,12.70
2023-11-21T00:47:11.717Z,11.93
2023-11-21T00:49:40.562Z,13.37
2023-11-21T00:52:08.285Z,11.00
2023-11-21T00:54:35.693Z,10.73
2023-11-21T00:57:02.880Z,13.47
2023-11-21T00:59:30.120Z,12.13
2023-11-21T01:01:57.453Z,14.47
2023-11-21T01:04:24.793Z,14.90
2023-11-21T01:06:52.009Z,12.07
2023-11-21T01:09:19.694Z,11.83
2023-11-21T01:11:47.435Z,15.00
2023-11-21T01:14:14.740Z,15.67
2023-11-21T01:16:42.221Z,14.93
2023-11-21T01:19:10.581Z,16.07
2023-11-21T01:21:38.063Z,9.93
2023-11-21T01:24:08.374Z,12.67
2023-11-21T01:26:35.662Z,12.57
2023-11-21T01:29:02.885Z,12.60
2023-11-21T01:31:30.990Z,12.67
2023-11-21T01:33:58.484Z,11.90
2023-11-21T01:36:32.940Z,13.70
2023-11-21T01:39:00.423Z,11.03
2023-11-21T01:41:28.415Z,14.80
2023-11-21T01:43:55.731Z,14.80
2023-11-21T01:46:23.377Z,16.03
2023-11-21T01:48:50.654Z,13.40
2023-11-21T01:51:18.570Z,11.90
2023-11-21T01:53:47.854Z,15.87
2023-11-21T01:56:15.125Z,12.83
2023-11-21T01:58:42.546Z,11.80
2023-11-21T02:01:11.054Z,12.10
2023-11-21T02:03:38.301Z,17.07
2023-11-21T02:06:06.528Z,14.87
2023-11-21T02:08:34.109Z,12.50
2023-11-21T02:11:01.363Z,13.60
2023-11-21T02:13:29.596Z,12.03
2023-11-21T02:15:57.265Z,14.00
2023-11-21T02:18:24.564Z,11.17
2023-11-21T02:20:52.218Z,14.17
2023-11-21T02:23:19.364Z,14.93
2023-11-21T02:25:46.599Z,14.63
2023-11-21T02:28:16.561Z,18.57
2023-11-21T02:30:44.781Z,17.10
2023-11-21T02:33:13.559Z,13.73
2023-11-21T02:35:41.011Z,16.30
2023-11-21T02:38:08.191Z,16.90
2023-11-21T02:40:35.431Z,14.67
2023-11-21T02:43:02.652Z,14.03
2023-11-21T02:45:30.023Z,13.30
2023-11-21T02:47:58.574Z,15.53
2023-11-21T02:50:26.492Z,14.80
2023-11-21T02:52:53.677Z,14.83
2023-11-21T02:55:20.981Z,19.13
2023-11-21T02:57:48.152Z,12.73
2023-11-21T03:00:16.209Z,17.47
2023-11-21T03:02:43.745Z,15.67
2023-11-21T03:05:11.480Z,16.47
2023-11-21T03:07:39.548Z,13.93
2023-11-21T03:10:07.305Z,13.83
2023-11-21T03:12:34.453Z,15.80
2023-11-21T03:15:03.078Z,20.30
2023-11-21T03:17:30.388Z,12.97
2023-11-21T03:19:58.445Z,15.17
2023-11-21T03:22:25.733Z,21.13
2023-11-21T03:24:52.950Z,18.17
2023-11-21T03:27:20.435Z,15.33
2023-11-21T03:29:47.821Z,20.10
2023-11-21T03:32:15.160Z,17.20
2023-11-21T03:34:56.657Z,17.67
2023-11-21T03:37:24.215Z,18.57
2023-11-21T03:39:51.401Z,21.13
2023-11-21T03:42:18.934Z,19.60
2023-11-21T03:44:46.069Z,19.30
2023-11-21T03:47:13.545Z,17.43
2023-11-21T03:49:40.756Z,21.80
2023-11-21T03:52:08.882Z,18.77
2023-11-21T03:54:36.450Z,18.33
2023-11-21T03:57:03.727Z,20.93
2023-11-21T03:59:30.940Z,20.13
2023-11-21T04:01:58.558Z,20.67
2023-11-21T04:04:25.866Z,21.83
2023-11-21T04:06:53.224Z,22.63
2023-11-21T04:09:20.515Z,20.63
2023-11-21T04:11:48.077Z,24.70
2023-11-21T04:14:15.252Z,23.83
2023-11-21T04:16:43.151Z,23.20
2023-11-21T04:19:11.493Z,20.73
2023-11-21T04:21:39.312Z,24.23
2023-11-21T04:24:07.279Z,28.03
2023-11-21T04:26:34.530Z,25.17
2023-11-21T04:29:01.659Z,24.33
2023-11-21T04:31:28.928Z,26.93
2023-11-21T04:33:56.115Z,27.23
2023-11-21T04:36:23.500Z,20.27
2023-11-21T04:38:50.645Z,24.60
2023-11-21T04:41:19.097Z,25.77
2023-11-21T04:43:46.332Z,24.10
2023-11-21T04:46:13.510Z,21.30
2023-11-21T04:48:40.753Z,26.30
2023-11-21T04:51:08.020Z,29.70
2023-11-21T04:53:36.052Z,21.90
2023-11-21T04:56:04.608Z,29.83
2023-11-21T04:58:31.870Z,25.27
2023-11-21T05:00:59.340Z,20.10
2023-11-21T05:03:27.461Z,25.90
2023-11-21T05:05:54.759Z,21.77
2023-11-21T05:08:23.513Z,23.67
2023-11-21T05:10:51.045Z,24.40
2023-11-21T05:13:18.787Z,22.17
2023-11-21T05:15:46.757Z,24.10
2023-11-21T05:18:16.733Z,31.70
2023-11-21T05:20:43.879Z,25.97
2023-11-21T05:23:11.296Z,23.10
2023-11-21T05:25:41.050Z,23.53
2023-11-21T05:28:08.711Z,32.70
2023-11-21T05:30:35.930Z,28.40
2023-11-21T05:33:03.186Z,22.63
2023-11-21T05:35:30.301Z,23.13
2023-11-21T05:37:57.499Z,24.03
2023-11-21T05:40:24.729Z,23.20
2023-11-21T05:42:52.996Z,20.53
2023-11-21T05:45:20.260Z,22.97
2023-11-21T05:47:48.336Z,26.70
2023-11-21T05:50:16.699Z,23.40
2023-11-21T05:52:44.966Z,29.63
2023-11-21T05:55:12.448Z,29.57
2023-11-21T05:57:40.445Z,22.60
2023-11-21T06:00:12.527Z,21.53
2023-11-21T06:02:40.696Z,28.10
2023-11-21T06:05:11.550Z,26.47
2023-11-21T06:07:39.369Z,28.23
2023-11-21T06:10:08.979Z,28.53
2023-11-21T06:12:37.019Z,27.77
2023-11-21T06:15:06.252Z,31.63
2023-11-21T06:17:33.727Z,27.93
2023-11-21T06:20:02.032Z,34.23
2023-11-21T06:22:31.613Z,30.57
2023-11-21T06:24:59.265Z,29.00
2023-11-21T06:27:26.455Z,32.60
2023-11-21T06:29:53.605Z,32.97
2023-11-21T06:32:22.143Z,34.67
2023-11-21T06:34:49.448Z,32.63
2023-11-21T06:37:17.978Z,24.67
2023-11-21T06:39:45.121Z,28.07
2023-11-21T06:42:12.265Z,29.80
2023-11-21T06:44:40.328Z,26.80
2023-11-21T06:47:07.581Z,26.80
2023-11-21T06:49:34.843Z,26.80
2023-11-21T06:52:03.772Z,27.10
2023-11-21T06:54:30.963Z,27.23
2023-11-21T06:56:58.099Z,27.57
2023-11-21T06:59:25.659Z,21.93
2023-11-21T07:01:52.886Z,24.80
2023-11-21T07:04:20.141Z,27.87
2023-11-21T07:06:47.684Z,22.50
2023-11-21T07:09:14.892Z,27.47
2023-11-21T07:11:44.235Z,39.40
2023-11-21T07:14:11.574Z,26.50
2023-11-21T07:16:39.070Z,26.10
2023-11-21T07:19:09.399Z,25.87
2023-11-21T07:21:37.291Z,23.30
2023-11-21T07:24:05.579Z,28.73
2023-11-21T07:26:32.702Z,33.40
2023-11-21T07:28:59.898Z,24.43
2023-11-21T07:31:27.196Z,30.97
2023-11-21T07:33:54.438Z,25.50
2023-11-21T07:36:24.806Z,23.33
2023-11-21T07:38:52.062Z,27.63
2023-11-21T07:41:28.492Z,31.77
2023-11-21T07:43:59.127Z,31.03
2023-11-21T07:46:27.748Z,25.37
2023-11-21T07:48:56.406Z,28.30
2023-11-21T07:51:23.739Z,24.80
2023-11-21T07:53:51.085Z,31.60
2023-11-21T07:56:18.952Z,29.13
2023-11-21T07:58:46.830Z,27.57
2023-11-21T08:01:14.113Z,27.87
2023-11-21T08:03:41.411Z,26.40
2023-11-21T08:06:08.868Z,31.17
2023-11-21T08:08:36.069Z,29.83
2023-11-21T08:11:04.852Z,27.40
2023-11-21T08:13:32.189Z,27.63
2023-11-21T08:16:04.786Z,22.30
2023-11-21T08:18:32.064Z,26.77
2023-11-21T08:20:59.256Z,26.23
2023-11-21T08:23:26.706Z,31.60
2023-11-21T08:25:54.592Z,29.23
2023-11-21T08:28:27.093Z,22.80
2023-11-21T08:30:55.595Z,22.60
2023-11-21T08:33:23.416Z,26.80
2023-11-21T08:35:51.468Z,25.43
2023-11-21T08:38:18.860Z,25.53
2023-11-21T08:40:46.092Z,24.87
2023-11-21T08:43:15.180Z,31.93
2023-11-21T08:45:42.402Z,27.80
2023-11-21T08:48:09.871Z,29.50
2023-11-21T08:50:37.077Z,31.30
2023-11-21T08:53:04.364Z,35.60
2023-11-21T08:55:31.560Z,33.70
2023-11-21T08:58:01.423Z,33.20
2023-11-21T09:00:29.985Z,29.37
2023-11-21T09:02:57.208Z,31.87
2023-11-21T09:05:24.457Z,31.83
2023-11-21T09:07:51.778Z,27.83
2023-11-21T09:10:19.028Z,31.53
2023-11-21T09:12:46.260Z,26.97
2023-11-21T09:15:14.125Z,23.43
2023-11-21T09:17:41.890Z,28.07
2023-11-21T09:20:11.289Z,24.80
2023-11-21T09:22:38.858Z,24.63
2023-11-21T09:25:06.451Z,23.43
2023-11-21T09:27:33.593Z,26.53
2023-11-21T09:30:00.786Z,21.13
2023-11-21T09:32:27.910Z,24.33
2023-11-21T09:34:59.237Z,24.10
2023-11-21T09:37:28.178Z,19.63
2023-11-21T09:39:56.231Z,17.67
2023-11-21T09:42:23.429Z,20.53
2023-11-21T09:44:59.491Z,16.27
2023-11-21T09:47:27.652Z,18.40
2023-11-21T09:49:56.226Z,15.50
2023-11-21T09:52:27.672Z,15.23
2023-11-21T09:54:55.566Z,17.47
2023-11-21T09:57:23.188Z,15.67
2023-11-21T09:59:53.429Z,13.53
2023-11-21T10:02:21.932Z,14.57
2023-11-21T10:04:49.283Z,14.63
2023-11-21T10:07:19.518Z,13.20
2023-11-21T10:09:46.750Z,15.87
2023-11-21T10:12:15.397Z,11.87
2023-11-21T10:14:44.623Z,10.77
2023-11-21T10:17:13.392Z,14.20
2023-11-21T10:19:41.676Z,10.50
2023-11-21T10:22:09.862Z,10.40
2023-11-21T10:24:45.268Z,12.23
2023-11-21T10:27:19.901Z,11.90
2023-11-21T10:29:47.019Z,12.00
2023-11-21T10:32:14.333Z,9.80
2023-11-21T10:34:42.540Z,9.83
2023-11-21T10:37:13.696Z,11.07
2023-11-21T10:39:41.242Z,10.43
2023-11-21T10:42:11.411Z,11.80
2023-11-21T10:44:38.919Z,8.73
2023-11-21T10:47:06.626Z,9.33
2023-11-21T10:49:33.894Z,9.43
2023-11-21T10:52:01.598Z,10.47
2023-11-21T10:54:28.920Z,9.40
2023-11-21T10:57:02.972Z,12.10
2023-11-21T10:59:34.280Z,7.73
2023-11-21T11:02:04.879Z,10.53
2023-11-21T11:04:33.257Z,12.13
2023-11-21T11:07:06.111Z,9.33
2023-11-21T11:09:35.040Z,10.40
2023-11-21T11:12:05.853Z,9.20
2023-11-21T11:14:33.714Z,8.27
2023-11-21T11:17:02.161Z,9.33
2023-11-21T11:19:29.543Z,7.03
2023-11-21T11:21:59.473Z,9.87
2023-11-21T11:24:32.692Z,7.80
2023-11-21T11:27:00.056Z,7.83
2023-11-21T11:29:45.962Z,10.10
2023-11-21T11:32:16.198Z,11.03
2023-11-21T11:34:51.064Z,8.57
2023-11-21T11:37:18.345Z,7.17
2023-11-21T11:39:46.472Z,10.50
2023-11-21T11:42:15.132Z,9.43
2023-11-21T11:44:47.276Z,9.03
2023-11-21T11:47:19.497Z,11.83
2023-11-21T11:50:08.222Z,11.07
2023-11-21T11:52:40.878Z,11.83
2023-11-21T11:55:11.151Z,11.13
2023-11-21T11:57:39.830Z,6.87
2023-11-21T12:00:21.393Z,9.20
2023-11-21T12:02:52.996Z,8.40
2023-11-21T12:05:21.561Z,9.40
2023-11-21T12:07:54.398Z,8.77
2023-11-21T12:10:23.700Z,8.03
2023-11-21T12:12:51.383Z,8.30
2023-11-21T12:15:18.755Z,9.10
2023-11-21T12:17:46.346Z,10.20
2023-11-21T12:20:18.487Z,8.33
2023-11-21T12:22:45.805Z,9.20
2023-11-21T12:25:17.289Z,9.37
2023-11-21T12:27:46.649Z,8.27
2023-11-21T12:30:16.627Z,8.80
2023-11-21T12:32:44.874Z,7.10
2023-11-21T12:35:12.563Z,5.47
2023-11-21T12:37:40.525Z,6.45
2023-11-21T12:40:16.369Z,8.38
2023-11-21T12:42:44.260Z,5.90
2023-11-21T12:45:18.053Z,6.40
2023-11-21T12:47:52.012Z,6.28
2023-11-21T12:50:24.611Z,5.93
2023-11-21T12:52:54.534Z,7.28
2023-11-21T12:55:22.999Z,8.10
2023-11-21T12:57:55.605Z,6.65
2023-11-21T13:00:30.853Z,6.68
2023-11-21T13:02:59.483Z,7.57
2023-11-21T13:05:28.077Z,6.07
2023-11-21T13:07:55.860Z,8.45
2023-11-21T13:10:28.341Z,7.00
2023-11-21T13:12:56.120Z,6.38
2023-11-21T13:15:23.321Z,7.07
2023-11-21T13:17:52.156Z,9.18
2023-11-21T13:20:21.207Z,8.27
2023-11-21T13:22:55.558Z,7.20
2023-11-21T13:25:23.414Z,10.67
2023-11-21T13:27:51.090Z,7.40
2023-11-21T13:30:24.044Z,8.60
2023-11-21T13:32:52.533Z,8.77
2023-11-21T13:35:31.623Z,8.07
2023-11-21T13:38:01.059Z,10.13
2023-11-21T13:40:28.316Z,8.70
2023-11-21T13:42:56.141Z,10.37
2023-11-21T13:45:24.195Z,7.40
2023-11-21T13:47:52.862Z,12.00
2023-11-21T13:50:25.741Z,8.60
2023-11-21T13:52:54.409Z,8.93
2023-11-21T13:55:25.276Z,7.93
2023-11-21T13:57:53.694Z,8.37
2023-11-21T14:00:39.458Z,8.13
2023-11-21T14:03:12.488Z,8.63
2023-11-21T14:05:40.366Z,9.37
2023-11-21T14:08:07.656Z,12.73
2023-11-21T14:10:44.722Z,12.00
2023-11-21T14:13:12.214Z,12.40
2023-11-21T14:15:46.485Z,15.37
2023-11-21T14:18:15.512Z,12.87
2023-11-21T14:20:42.896Z,12.73
2023-11-21T14:23:11.279Z,13.17
2023-11-21T14:25:40.562Z,13.00
2023-11-21T14:28:07.819Z,13.27
2023-11-21T14:30:37.037Z,14.53
2023-11-21T14:33:04.397Z,11.73
2023-11-21T14:35:33.540Z,15.07
2023-11-21T14:38:01.752Z,10.70
2023-11-21T14:40:34.029Z,10.53
2023-11-21T14:43:02.037Z,15.43
2023-11-21T14:45:30.047Z,16.57
2023-11-21T14:48:07.052Z,15.40
2023-11-21T14:50:51.128Z,18.53
2023-11-21T14:53:32.059Z,13.70
2023-11-21T14:56:01.362Z,16.23
2023-11-21T14:58:28.534Z,17.43
2023-11-21T15:00:59.393Z,20.97
2023-11-21T15:03:33.601Z,22.87
2023-11-21T15:06:20.290Z,15.43
2023-11-21T15:09:20.826Z,20.67
2023-11-21T15:11:48.879Z,17.67
2023-11-21T15:14:21.705Z,16.63
2023-11-21T15:16:52.814Z,18.97
2023-11-21T15:19:25.697Z,22.90
2023-11-21T15:21:52.872Z,20.20
2023-11-21T15:24:20.041Z,20.03
2023-11-21T15:26:47.259Z,22.47
2023-11-21T15:29:15.868Z,14.43
2023-11-21T15:31:48.970Z,21.47
2023-11-21T15:34:16.722Z,15.50
2023-11-21T15:36:43.943Z,24.33
2023-11-21T15:39:11.420Z,20.63
2023-11-21T15:41:42.608Z,18.43
2023-11-21T15:44:12.706Z,22.03
2023-11-21T15:46:42.440Z,18.93
2023-11-21T15:49:13.763Z,18.90
2023-11-21T15:51:41.983Z,16.03
2023-11-21T15:54:09.150Z,19.37
2023-11-21T15:56:36.413Z,19.17
2023-11-21T15:59:04.776Z,19.57
2023-11-21T16:01:35.916Z,19.97
2023-11-21T16:04:04.354Z,19.27
2023-11-21T16:06:32.119Z,20.47
2023-11-21T16:09:00.055Z,18.00
2023-11-21T16:11:27.258Z,14.20
2023-11-21T16:13:54.627Z,21.93
2023-11-21T16:16:22.892Z,18.17
2023-11-21T16:18:50.046Z,26.13
2023-11-21T16:21:17.177Z,20.57
2023-11-21T16:23:44.683Z,28.53
2023-11-21T16:26:12.639Z,21.97
2023-11-21T16:28:42.726Z,21.67
2023-11-21T16:31:11.496Z,24.27
2023-11-21T16:33:40.157Z,19.50
2023-11-21T16:36:07.673Z,23.07
2023-11-21T16:38:34.843Z,21.20
2023-11-21T16:41:04.065Z,19.57
2023-11-21T16:43:31.319Z,17.10
2023-11-21T16:45:58.549Z,20.87
2023-11-21T16:48:25.730Z,20.63
2023-11-21T16:50:53.271Z,24.23
2023-11-21T16:53:20.436Z,19.90
2023-11-21T16:55:49.607Z,21.20
2023-11-21T16:58:17.331Z,18.63
2023-11-21T17:00:44.577Z,27.33
2023-11-21T17:03:11.946Z,20.03
2023-11-21T17:05:39.285Z,30.50
2023-11-21T17:08:06.535Z,21.87
2023-11-21T17:10:33.702Z,24.03
2023-11-21T17:13:02.766Z,21.47
2023-11-21T17:15:29.913Z,27.00
2023-11-21T17:17:59.527Z,24.27
2023-11-21T17:20:27.641Z,22.33
2023-11-21T17:22:56.792Z,23.07
2023-11-21T17:25:23.983Z,22.23
2023-11-21T17:27:52.367Z,17.63
2023-11-21T17:30:20.236Z,20.73
2023-11-21T17:32:47.609Z,24.40
2023-11-21T17:35:15.639Z,19.33
2023-11-21T17:37:42.885Z,21.53
2023-11-21T17:40:10.158Z,16.03
2023-11-21T17:42:37.320Z,16.90
2023-11-21T17:45:04.717Z,21.93
2023-11-21T17:47:31.951Z,18.47
2023-11-21T17:49:59.170Z,21.80
2023-11-21T17:52:26.333Z,21.80
2023-11-21T17:54:53.554Z,22.97
2023-11-21T17:57:20.926Z,18.80
2023-11-21T17:59:51.647Z,22.50
2023-11-21T18:02:18.935Z,26.07
2023-11-21T18:04:46.141Z,21.37
2023-11-21T18:07:13.906Z,18.83
2023-11-21T18:09:41.063Z,18.30
2023-11-21T18:12:09.924Z,21.70
2023-11-21T18:14:38.330Z,23.33
2023-11-21T18:17:05.680Z,18.70
2023-11-21T18:19:33.782Z,16.93
2023-11-21T18:22:01.027Z,21.67
2023-11-21T18:24:29.455Z,21.10
2023-11-21T18:26:56.672Z,20.83
2023-11-21T18:29:23.856Z,19.40
2023-11-21T18:31:51.073Z,20.33
2023-11-21T18:34:19.118Z,24.37
2023-11-21T18:36:46.428Z,25.43
2023-11-21T18:39:18.340Z,20.13
2023-11-21T18:41:46.165Z,22.77
2023-11-21T18:44:13.393Z,19.27
2023-11-21T18:46:41.555Z,23.03
2023-11-21T18:49:09.645Z,17.23
2023-11-21T18:51:37.698Z,19.23
2023-11-21T18:54:06.758Z,19.90
2023-11-21T18:56:33.964Z,22.73
2023-11-21T18:59:01.190Z,17.90
2023-11-21T19:01:29.289Z,23.30
2023-11-21T19:03:56.855Z,20.80
2023-11-21T19:06:24.179Z,21.37
2023-11-21T19:08:51.546Z,23.93
2023-11-21T19:11:18.983Z,22.90
2023-11-21T19:13:47.338Z,21.73
2023-11-21T19:16:17.412Z,21.77
2023-11-21T19:18:44.799Z,22.60
2023-11-21T19:21:15.999Z,10.43
2023-11-21T19:23:43.601Z,9.07
2023-11-21T19:26:10.807Z,9.67
2023-11-21T19:28:38.016Z,4.83
2023-11-21T19:31:05.396Z,5.97
2023-11-21T19:33:32.612Z,6.13
2023-11-21T19:35:59.791Z,6.33
2023-11-21T19:38:26.998Z,7.93
2023-11-21T19:40:54.192Z,7.00
2023-11-21T19:43:21.444Z,6.27
2023-11-21T19:45:49.393Z,4.53
2023-11-21T19:48:18.105Z,4.60
2023-11-21T19:50:45.442Z,6.03
2023-11-21T19:53:12.730Z,4.33
2023-11-21T19:55:39.894Z,6.27
2023-11-21T19:58:07.957Z,7.33
2023-11-21T20:00:35.420Z,6.27
2023-11-21T20:03:03.376Z,5.10
2023-11-21T20:05:31.288Z,6.30
2023-11-21T20:07:58.502Z,5.47
2023-11-21T20:10:25.864Z,7.47
2023-11-21T20:12:58.746Z,9.37
2023-11-21T20:15:30.085Z,8.10
2023-11-21T20:17:57.240Z,9.03
2023-11-21T20:20:24.481Z,7.57
2023-11-21T20:22:52.831Z,7.47
2023-11-21T20:25:20.135Z,8.17
2023-11-21T20:27:48.136Z,9.67
2023-11-21T20:30:15.756Z,9.07
2023-11-21T20:32:42.910Z,9.03
2023-11-21T20:35:11.703Z,8.37
2023-11-21T20:37:38.935Z,7.73
2023-11-21T20:40:08.989Z,8.63
2023-11-21T20:42:37.094Z,8.73
2023-11-21T20:45:05.396Z,8.10
2023-11-21T20:47:34.118Z,7.23
2023-11-21T20:50:01.496Z,7.37
2023-11-21T20:52:28.678Z,8.20
2023-11-21T20:54:56.171Z,8.53
2023-11-21T20:57:24.661Z,11.97
2023-11-21T20:59:52.476Z,8.50
2023-11-21T21:02:19.796Z,8.13
2023-11-21T21:04:47.034Z,8.17
2023-11-21T21:07:14.733Z,8.90
2023-11-21T21:09:42.683Z,9.00
2023-11-21T21:12:12.534Z,9.17
2023-11-21T21:14:39.887Z,10.43
2023-11-21T21:17:07.305Z,9.03
2023-11-21T21:19:34.798Z,8.40
2023-11-21T21:22:02.086Z,9.97
2023-11-21T21:24:29.601Z,8.97
2023-11-21T21:26:56.829Z,9.20
2023-11-21T21:29:26.972Z,8.43
2023-11-21T21:31:54.782Z,10.23
2023-11-21T21:34:22.075Z,7.80
2023-11-21T21:36:49.310Z,10.23
2023-11-21T21:39:18.451Z,7.77
2023-11-21T21:41:45.676Z,8.33
2023-11-21T21:44:12.972Z,9.73
2023-11-21T21:46:41.164Z,7.50
2023-11-21T21:49:10.234Z,8.87
2023-11-21T21:51:38.214Z,7.50
2023-11-21T21:54:08.148Z,10.63
2023-11-21T21:56:35.615Z,7.40
2023-11-21T21:59:02.822Z,7.77
2023-11-21T22:01:31.927Z,7.63
2023-11-21T22:04:01.443Z,7.00
2023-11-21T22:06:29.989Z,9.27
2023-11-21T22:08:57.496Z,7.83
2023-11-21T22:11:24.734Z,8.77
2023-11-21T22:13:51.967Z,7.90
2023-11-21T22:16:19.225Z,7.70
2023-11-21T22:18:46.437Z,8.73
2023-11-21T22:21:18.930Z,8.63
2023-11-21T22:23:46.199Z,7.50
2023-11-21T22:26:17.038Z,7.97
2023-11-21T22:28:44.271Z,8.47
2023-11-21T22:31:11.479Z,8.17
2023-11-21T22:33:38.707Z,7.57
2023-11-21T22:36:06.134Z,10.90
2023-11-21T22:38:33.341Z,9.23
2023-11-21T22:41:00.493Z,7.37
2023-11-21T22:43:27.646Z,8.57
2023-11-21T22:45:54.831Z,8.40
2023-11-21T22:48:22.065Z,7.27
2023-11-21T22:50:49.233Z,8.77
2023-11-21T22:53:16.567Z,8.57
2023-11-21T22:55:44.218Z,9.87
2023-11-21T22:58:11.388Z,9.43
2023-11-21T23:00:39.822Z,8.57
2023-11-21T23:03:07.143Z,10.53
2023-11-21T23:05:34.417Z,8.63
2023-11-21T23:08:01.568Z,8.67
2023-11-21T23:10:28.755Z,10.27
2023-11-21T23:12:57.556Z,10.37
2023-11-21T23:15:26.179Z,8.93
2023-11-21T23:17:54.469Z,9.40
2023-11-21T23:20:22.560Z,10.47
2023-11-21T23:22:50.679Z,10.17
2023-11-21T23:25:18.330Z,10.03
2023-11-21T23:27:45.782Z,10.00
2023-11-21T23:30:14.036Z,8.53
2023-11-21T23:32:42.622Z,11.03
2023-11-21T23:35:11.753Z,10.67
2023-11-21T23:37:42.464Z,9.57
2023-11-21T23:40:10.771Z,13.17
2023-11-21T23:42:38.012Z,8.73
2023-11-21T23:45:05.630Z,9.50
2023-11-21T23:47:32.917Z,8.40
2023-11-21T23:50:00.387Z,9.87
2023-11-21T23:52:27.814Z,9.17
2023-11-21T23:54:55.497Z,8.13
2023-11-21T23:57:22.661Z,9.13
2023-11-21T23:59:51.692Z,8.80
